sensor_id;sensor_type;location;lat;lon;timestamp;temperature;humidity
27759;DHT22;15148;48.972;12.794;2024-03-02T00:01:02;5.20;99.90
27759;DHT22;15148;48.972;12.794;2024-03-02T00:06:05;5.20;99.90
27759;DHT22;15148;48.972;12.794;2024-03-02T00:11:07;5.20;99.90
27759;DHT22;15148;48.972;12.794;2024-03-02T00:16:10;5.30;99.90
27759;DHT22;15148;48.972;12.794;2024-03-02T00:21:12;5.20;99.90
27759;DHT22;15148;48.972;12.794;2024-03-02T00:26:16;5.30;99.90
27759;DHT22;15148;48.972;12.794;2024-03-02T00:31:20;5.30;99.90
27759;DHT22;15148;48.972;12.794;2024-03-02T00:36:26;5.30;99.90
27759;DHT22;15148;48.972;12.794;2024-03-02T00:41:32;5.30;99.90
27759;DHT22;15148;48.972;12.794;2024-03-02T00:46:38;5.30;99.90
27759;DHT22;15148;48.972;12.794;2024-03-02T00:51:41;5.40;99.90
27759;DHT22;15148;48.972;12.794;2024-03-02T00:56:43;5.40;99.90
27759;DHT22;15148;48.972;12.794;2024-03-02T01:01:45;5.40;99.90
27759;DHT22;15148;48.972;12.794;2024-03-02T01:06:47;5.40;99.90
27759;DHT22;15148;48.972;12.794;2024-03-02T01:11:50;5.40;99.90
27759;DHT22;15148;48.972;12.794;2024-03-02T01:16:52;5.40;99.90
27759;DHT22;15148;48.972;12.794;2024-03-02T01:21:54;5.40;99.90
27759;DHT22;15148;48.972;12.794;2024-03-02T01:26:56;5.40;99.90
27759;DHT22;15148;48.972;12.794;2024-03-02T01:31:58;5.40;99.90
27759;DHT22;15148;48.972;12.794;2024-03-02T01:37:00;5.40;99.90
27759;DHT22;15148;48.972;12.794;2024-03-02T01:42:02;5.40;99.90
27759;DHT22;15148;48.972;12.794;2024-03-02T01:47:04;5.40;99.90
27759;DHT22;15148;48.972;12.794;2024-03-02T01:52:07;5.40;99.90
27759;DHT22;15148;48.972;12.794;2024-03-02T01:57:09;5.40;99.90
27759;DHT22;15148;48.972;12.794;2024-03-02T02:02:11;5.40;99.90
27759;DHT22;15148;48.972;12.794;2024-03-02T02:07:13;5.40;99.90
27759;DHT22;15148;48.972;12.794;2024-03-02T02:12:16;5.40;99.90
27759;DHT22;15148;48.972;12.794;2024-03-02T02:17:18;5.40;99.90
27759;DHT22;15148;48.972;12.794;2024-03-02T02:22:20;5.40;99.90
27759;DHT22;15148;48.972;12.794;2024-03-02T02:27:22;5.40;99.90
27759;DHT22;15148;48.972;12.794;2024-03-02T02:32:24;5.40;99.90
27759;DHT22;15148;48.972;12.794;2024-03-02T02:37:26;5.40;99.90
27759;DHT22;15148;48.972;12.794;2024-03-02T02:42:28;5.40;99.90
27759;DHT22;15148;48.972;12.794;2024-03-02T02:47:30;5.40;99.90
27759;DHT22;15148;48.972;12.794;2024-03-02T02:52:38;5.40;99.90
27759;DHT22;15148;48.972;12.794;2024-03-02T02:57:42;5.40;99.90
27759;DHT22;15148;48.972;12.794;2024-03-02T03:02:48;5.40;99.90
27759;DHT22;15148;48.972;12.794;2024-03-02T03:07:52;5.40;99.90
27759;DHT22;15148;48.972;12.794;2024-03-02T03:12:54;5.40;99.90
27759;DHT22;15148;48.972;12.794;2024-03-02T03:17:58;5.40;99.90
27759;DHT22;15148;48.972;12.794;2024-03-02T03:23:00;5.40;99.90
27759;DHT22;15148;48.972;12.794;2024-03-02T03:28:02;5.40;99.90
27759;DHT22;15148;48.972;12.794;2024-03-02T03:33:05;5.40;99.90
27759;DHT22;15148;48.972;12.794;2024-03-02T03:38:10;5.40;99.90
27759;DHT22;15148;48.972;12.794;2024-03-02T03:43:12;5.40;99.90
27759;DHT22;15148;48.972;12.794;2024-03-02T03:48:14;5.40;99.90
27759;DHT22;15148;48.972;12.794;2024-03-02T03:53:16;5.40;99.90
27759;DHT22;15148;48.972;12.794;2024-03-02T03:58:18;5.40;99.90
27759;DHT22;15148;48.972;12.794;2024-03-02T04:03:24;5.40;99.90
27759;DHT22;15148;48.972;12.794;2024-03-02T04:08:27;5.40;99.90
27759;DHT22;15148;48.972;12.794;2024-03-02T04:13:29;5.40;99.90
27759;DHT22;15148;48.972;12.794;2024-03-02T04:18:31;5.40;99.90
27759;DHT22;15148;48.972;12.794;2024-03-02T04:23:34;5.40;99.90
27759;DHT22;15148;48.972;12.794;2024-03-02T04:28:36;5.40;99.90
27759;DHT22;15148;48.972;12.794;2024-03-02T04:33:38;5.40;99.90
27759;DHT22;15148;48.972;12.794;2024-03-02T04:38:40;5.40;99.90
27759;DHT22;15148;48.972;12.794;2024-03-02T04:43:42;5.40;99.90
27759;DHT22;15148;48.972;12.794;2024-03-02T04:48:44;5.40;99.90
27759;DHT22;15148;48.972;12.794;2024-03-02T04:53:46;5.40;99.90
27759;DHT22;15148;48.972;12.794;2024-03-02T04:58:48;5.40;99.90
27759;DHT22;15148;48.972;12.794;2024-03-02T05:03:50;5.40;99.90
27759;DHT22;15148;48.972;12.794;2024-03-02T05:08:52;5.40;99.90
27759;DHT22;15148;48.972;12.794;2024-03-02T05:13:54;5.40;99.90
27759;DHT22;15148;48.972;12.794;2024-03-02T05:18:56;5.40;99.90
27759;DHT22;15148;48.972;12.794;2024-03-02T05:23:58;5.40;99.90
27759;DHT22;15148;48.972;12.794;2024-03-02T05:29:01;5.40;99.90
27759;DHT22;15148;48.972;12.794;2024-03-02T05:34:04;5.40;99.90
27759;DHT22;15148;48.972;12.794;2024-03-02T05:39:07;5.40;99.90
27759;DHT22;15148;48.972;12.794;2024-03-02T05:44:11;5.40;99.90
27759;DHT22;15148;48.972;12.794;2024-03-02T05:49:14;5.30;99.90
27759;DHT22;15148;48.972;12.794;2024-03-02T05:54:16;5.40;99.90
27759;DHT22;15148;48.972;12.794;2024-03-02T05:59:18;5.40;99.90
27759;DHT22;15148;48.972;12.794;2024-03-02T06:04:20;5.40;99.90
27759;DHT22;15148;48.972;12.794;2024-03-02T06:09:22;5.40;99.90
27759;DHT22;15148;48.972;12.794;2024-03-02T06:14:26;5.40;99.90
27759;DHT22;15148;48.972;12.794;2024-03-02T06:19:28;5.40;99.90
27759;DHT22;15148;48.972;12.794;2024-03-02T06:24:30;5.50;99.90
27759;DHT22;15148;48.972;12.794;2024-03-02T06:29:33;5.40;99.90
27759;DHT22;15148;48.972;12.794;2024-03-02T06:34:35;5.50;99.90
27759;DHT22;15148;48.972;12.794;2024-03-02T06:39:37;5.50;99.90
27759;DHT22;15148;48.972;12.794;2024-03-02T06:44:39;5.50;99.90
27759;DHT22;15148;48.972;12.794;2024-03-02T06:49:41;5.60;99.90
27759;DHT22;15148;48.972;12.794;2024-03-02T06:54:43;5.60;99.90
27759;DHT22;15148;48.972;12.794;2024-03-02T06:59:45;5.60;99.90
27759;DHT22;15148;48.972;12.794;2024-03-02T07:04:47;5.70;99.90
27759;DHT22;15148;48.972;12.794;2024-03-02T07:09:49;5.80;99.90
27759;DHT22;15148;48.972;12.794;2024-03-02T07:14:51;5.80;99.90
27759;DHT22;15148;48.972;12.794;2024-03-02T07:20:05;5.90;99.90
27759;DHT22;15148;48.972;12.794;2024-03-02T07:25:08;5.90;99.90
27759;DHT22;15148;48.972;12.794;2024-03-02T07:30:30;6.00;99.90
27759;DHT22;15148;48.972;12.794;2024-03-02T07:35:34;6.10;99.90
27759;DHT22;15148;48.972;12.794;2024-03-02T07:40:36;6.20;99.90
27759;DHT22;15148;48.972;12.794;2024-03-02T07:45:38;6.20;99.90
27759;DHT22;15148;48.972;12.794;2024-03-02T07:50:41;6.20;99.90
27759;DHT22;15148;48.972;12.794;2024-03-02T07:55:43;6.30;99.90
27759;DHT22;15148;48.972;12.794;2024-03-02T08:00:45;6.40;99.90
27759;DHT22;15148;48.972;12.794;2024-03-02T08:05:47;6.50;99.90
27759;DHT22;15148;48.972;12.794;2024-03-02T08:10:49;6.60;99.90
27759;DHT22;15148;48.972;12.794;2024-03-02T08:15:51;6.60;99.90
27759;DHT22;15148;48.972;12.794;2024-03-02T08:20:53;6.70;99.90
27759;DHT22;15148;48.972;12.794;2024-03-02T08:25:55;6.90;99.90
27759;DHT22;15148;48.972;12.794;2024-03-02T08:30:57;6.90;99.90
27759;DHT22;15148;48.972;12.794;2024-03-02T08:36:00;6.90;99.90
27759;DHT22;15148;48.972;12.794;2024-03-02T08:41:02;6.90;99.90
27759;DHT22;15148;48.972;12.794;2024-03-02T08:46:05;6.90;99.90
27759;DHT22;15148;48.972;12.794;2024-03-02T08:51:07;6.90;99.90
27759;DHT22;15148;48.972;12.794;2024-03-02T08:56:12;6.80;99.90
27759;DHT22;15148;48.972;12.794;2024-03-02T09:01:14;6.80;99.90
27759;DHT22;15148;48.972;12.794;2024-03-02T09:06:17;6.80;99.90
27759;DHT22;15148;48.972;12.794;2024-03-02T09:11:19;6.90;99.90
27759;DHT22;15148;48.972;12.794;2024-03-02T09:16:21;6.90;99.90
27759;DHT22;15148;48.972;12.794;2024-03-02T09:21:23;7.00;99.90
27759;DHT22;15148;48.972;12.794;2024-03-02T09:26:27;7.10;99.90
27759;DHT22;15148;48.972;12.794;2024-03-02T09:31:29;7.00;99.90
27759;DHT22;15148;48.972;12.794;2024-03-02T09:36:31;7.10;99.90
27759;DHT22;15148;48.972;12.794;2024-03-02T09:41:33;7.10;99.90
27759;DHT22;15148;48.972;12.794;2024-03-02T09:46:35;7.10;99.90
27759;DHT22;15148;48.972;12.794;2024-03-02T09:51:38;7.10;99.90
27759;DHT22;15148;48.972;12.794;2024-03-02T09:56:41;7.10;99.90
27759;DHT22;15148;48.972;12.794;2024-03-02T10:02:00;7.10;99.90
27759;DHT22;15148;48.972;12.794;2024-03-02T10:07:16;7.20;99.90
27759;DHT22;15148;48.972;12.794;2024-03-02T10:12:18;7.30;99.90
27759;DHT22;15148;48.972;12.794;2024-03-02T10:17:21;7.40;99.90
27759;DHT22;15148;48.972;12.794;2024-03-02T10:22:23;7.40;99.90
27759;DHT22;15148;48.972;12.794;2024-03-02T10:27:27;7.50;99.90
27759;DHT22;15148;48.972;12.794;2024-03-02T10:32:29;7.50;99.90
27759;DHT22;15148;48.972;12.794;2024-03-02T10:37:32;7.50;99.90
27759;DHT22;15148;48.972;12.794;2024-03-02T10:42:35;7.50;99.90
27759;DHT22;15148;48.972;12.794;2024-03-02T10:47:38;7.60;99.90
27759;DHT22;15148;48.972;12.794;2024-03-02T10:52:40;7.50;99.90
27759;DHT22;15148;48.972;12.794;2024-03-02T10:57:52;7.60;99.90
27759;DHT22;15148;48.972;12.794;2024-03-02T11:02:57;7.70;99.90
27759;DHT22;15148;48.972;12.794;2024-03-02T11:08:07;7.80;99.90
27759;DHT22;15148;48.972;12.794;2024-03-02T11:13:09;7.80;99.90
27759;DHT22;15148;48.972;12.794;2024-03-02T11:18:13;7.90;99.90
27759;DHT22;15148;48.972;12.794;2024-03-02T11:23:16;8.00;99.90
27759;DHT22;15148;48.972;12.794;2024-03-02T11:28:35;8.00;99.90
27759;DHT22;15148;48.972;12.794;2024-03-02T11:33:38;8.30;99.90
27759;DHT22;15148;48.972;12.794;2024-03-02T11:38:43;8.50;99.90
27759;DHT22;15148;48.972;12.794;2024-03-02T11:43:47;8.60;99.90
27759;DHT22;15148;48.972;12.794;2024-03-02T11:48:50;8.60;99.90
27759;DHT22;15148;48.972;12.794;2024-03-02T11:53:54;8.70;99.90
27759;DHT22;15148;48.972;12.794;2024-03-02T11:58:57;8.80;99.90
27759;DHT22;15148;48.972;12.794;2024-03-02T12:03:59;9.00;99.90
27759;DHT22;15148;48.972;12.794;2024-03-02T12:09:01;9.10;99.90
27759;DHT22;15148;48.972;12.794;2024-03-02T12:14:04;9.20;99.90
27759;DHT22;15148;48.972;12.794;2024-03-02T12:19:12;9.30;99.90
27759;DHT22;15148;48.972;12.794;2024-03-02T12:24:14;9.50;99.90
27759;DHT22;15148;48.972;12.794;2024-03-02T12:29:16;9.60;99.90
27759;DHT22;15148;48.972;12.794;2024-03-02T12:34:19;9.70;99.90
27759;DHT22;15148;48.972;12.794;2024-03-02T12:39:21;9.90;99.90
27759;DHT22;15148;48.972;12.794;2024-03-02T12:44:26;10.00;99.90
27759;DHT22;15148;48.972;12.794;2024-03-02T12:49:28;10.10;99.90
27759;DHT22;15148;48.972;12.794;2024-03-02T12:54:32;10.20;99.90
27759;DHT22;15148;48.972;12.794;2024-03-02T12:59:35;10.30;99.90
27759;DHT22;15148;48.972;12.794;2024-03-02T13:04:40;10.50;99.90
27759;DHT22;15148;48.972;12.794;2024-03-02T13:09:42;10.50;99.90
27759;DHT22;15148;48.972;12.794;2024-03-02T13:14:48;10.70;99.90
27759;DHT22;15148;48.972;12.794;2024-03-02T13:20:00;11.10;99.90
27759;DHT22;15148;48.972;12.794;2024-03-02T13:25:03;11.30;99.90
27759;DHT22;15148;48.972;12.794;2024-03-02T13:30:08;11.40;99.90
27759;DHT22;15148;48.972;12.794;2024-03-02T13:35:11;11.70;99.90
27759;DHT22;15148;48.972;12.794;2024-03-02T13:40:13;11.90;99.90
27759;DHT22;15148;48.972;12.794;2024-03-02T13:45:19;12.00;99.90
27759;DHT22;15148;48.972;12.794;2024-03-02T13:50:21;11.90;99.90
27759;DHT22;15148;48.972;12.794;2024-03-02T13:55:23;11.80;99.90
27759;DHT22;15148;48.972;12.794;2024-03-02T14:00:25;11.80;99.90
27759;DHT22;15148;48.972;12.794;2024-03-02T14:05:28;11.70;99.90
27759;DHT22;15148;48.972;12.794;2024-03-02T14:10:30;11.80;99.90
27759;DHT22;15148;48.972;12.794;2024-03-02T14:15:31;12.00;99.90
27759;DHT22;15148;48.972;12.794;2024-03-02T14:20:34;12.00;99.90
27759;DHT22;15148;48.972;12.794;2024-03-02T14:25:36;12.10;99.90
27759;DHT22;15148;48.972;12.794;2024-03-02T14:30:38;12.10;99.90
27759;DHT22;15148;48.972;12.794;2024-03-02T14:35:41;12.10;99.90
27759;DHT22;15148;48.972;12.794;2024-03-02T14:40:43;12.00;99.90
27759;DHT22;15148;48.972;12.794;2024-03-02T14:45:45;11.90;99.90
27759;DHT22;15148;48.972;12.794;2024-03-02T14:50:47;11.70;99.90
27759;DHT22;15148;48.972;12.794;2024-03-02T14:55:49;11.70;99.90
27759;DHT22;15148;48.972;12.794;2024-03-02T15:00:51;11.60;99.90
27759;DHT22;15148;48.972;12.794;2024-03-02T15:05:55;11.60;99.90
27759;DHT22;15148;48.972;12.794;2024-03-02T15:10:57;11.60;99.90
27759;DHT22;15148;48.972;12.794;2024-03-02T15:16:01;11.50;99.90
27759;DHT22;15148;48.972;12.794;2024-03-02T15:21:04;11.30;99.90
27759;DHT22;15148;48.972;12.794;2024-03-02T15:26:06;11.20;99.90
27759;DHT22;15148;48.972;12.794;2024-03-02T15:31:11;11.10;99.90
27759;DHT22;15148;48.972;12.794;2024-03-02T15:36:13;11.00;99.90
27759;DHT22;15148;48.972;12.794;2024-03-02T15:41:15;10.90;99.90
27759;DHT22;15148;48.972;12.794;2024-03-02T15:46:17;10.80;99.90
27759;DHT22;15148;48.972;12.794;2024-03-02T15:51:19;10.60;99.90
27759;DHT22;15148;48.972;12.794;2024-03-02T15:56:22;10.40;99.90
27759;DHT22;15148;48.972;12.794;2024-03-02T16:01:24;10.20;99.90
27759;DHT22;15148;48.972;12.794;2024-03-02T16:06:31;9.90;99.90
27759;DHT22;15148;48.972;12.794;2024-03-02T16:11:33;9.70;99.90
27759;DHT22;15148;48.972;12.794;2024-03-02T16:16:37;9.60;99.90
27759;DHT22;15148;48.972;12.794;2024-03-02T16:21:39;9.50;99.90
27759;DHT22;15148;48.972;12.794;2024-03-02T16:26:41;9.30;99.90
27759;DHT22;15148;48.972;12.794;2024-03-02T16:31:43;9.10;99.90
27759;DHT22;15148;48.972;12.794;2024-03-02T16:36:45;9.00;99.90
27759;DHT22;15148;48.972;12.794;2024-03-02T16:41:47;8.80;99.90
27759;DHT22;15148;48.972;12.794;2024-03-02T16:46:49;8.60;99.90
27759;DHT22;15148;48.972;12.794;2024-03-02T16:51:51;8.50;99.90
27759;DHT22;15148;48.972;12.794;2024-03-02T16:56:53;8.30;99.90
27759;DHT22;15148;48.972;12.794;2024-03-02T17:01:55;8.10;99.90
27759;DHT22;15148;48.972;12.794;2024-03-02T17:06:57;8.00;99.90
27759;DHT22;15148;48.972;12.794;2024-03-02T17:11:59;7.90;99.90
27759;DHT22;15148;48.972;12.794;2024-03-02T17:17:01;7.70;99.90
27759;DHT22;15148;48.972;12.794;2024-03-02T17:22:03;7.60;99.90
27759;DHT22;15148;48.972;12.794;2024-03-02T17:27:05;7.50;99.90
27759;DHT22;15148;48.972;12.794;2024-03-02T17:32:07;7.40;99.90
27759;DHT22;15148;48.972;12.794;2024-03-02T17:37:10;7.30;99.90
27759;DHT22;15148;48.972;12.794;2024-03-02T17:42:12;7.20;99.90
27759;DHT22;15148;48.972;12.794;2024-03-02T17:47:14;7.10;99.90
27759;DHT22;15148;48.972;12.794;2024-03-02T17:52:16;7.00;99.90
27759;DHT22;15148;48.972;12.794;2024-03-02T17:57:19;6.80;99.90
27759;DHT22;15148;48.972;12.794;2024-03-02T18:02:21;6.80;99.90
27759;DHT22;15148;48.972;12.794;2024-03-02T18:07:23;6.70;99.90
27759;DHT22;15148;48.972;12.794;2024-03-02T18:12:25;6.60;99.90
27759;DHT22;15148;48.972;12.794;2024-03-02T18:17:27;6.60;99.90
27759;DHT22;15148;48.972;12.794;2024-03-02T18:22:29;6.60;99.90
27759;DHT22;15148;48.972;12.794;2024-03-02T18:27:31;6.60;99.90
27759;DHT22;15148;48.972;12.794;2024-03-02T18:32:38;6.40;99.90
27759;DHT22;15148;48.972;12.794;2024-03-02T18:37:40;6.30;99.90
27759;DHT22;15148;48.972;12.794;2024-03-02T18:42:44;6.30;99.90
27759;DHT22;15148;48.972;12.794;2024-03-02T18:47:46;6.20;99.90
27759;DHT22;15148;48.972;12.794;2024-03-02T18:52:48;6.10;99.90
27759;DHT22;15148;48.972;12.794;2024-03-02T18:57:50;6.00;99.90
27759;DHT22;15148;48.972;12.794;2024-03-02T19:02:52;5.90;99.90
27759;DHT22;15148;48.972;12.794;2024-03-02T19:07:55;5.90;99.90
27759;DHT22;15148;48.972;12.794;2024-03-02T19:12:56;5.80;99.90
27759;DHT22;15148;48.972;12.794;2024-03-02T19:17:58;5.80;99.90
27759;DHT22;15148;48.972;12.794;2024-03-02T19:23:01;5.70;99.90
27759;DHT22;15148;48.972;12.794;2024-03-02T19:28:03;5.80;99.90
27759;DHT22;15148;48.972;12.794;2024-03-02T19:33:06;5.80;99.90
27759;DHT22;15148;48.972;12.794;2024-03-02T19:38:09;5.80;99.90
27759;DHT22;15148;48.972;12.794;2024-03-02T19:43:11;5.70;99.90
27759;DHT22;15148;48.972;12.794;2024-03-02T19:48:16;5.60;99.90
27759;DHT22;15148;48.972;12.794;2024-03-02T19:53:19;5.50;99.90
27759;DHT22;15148;48.972;12.794;2024-03-02T19:58:21;5.60;99.90
27759;DHT22;15148;48.972;12.794;2024-03-02T20:03:24;5.50;99.90
27759;DHT22;15148;48.972;12.794;2024-03-02T20:08:27;5.50;99.90
27759;DHT22;15148;48.972;12.794;2024-03-02T20:13:30;5.50;99.90
27759;DHT22;15148;48.972;12.794;2024-03-02T20:18:32;5.50;99.90
27759;DHT22;15148;48.972;12.794;2024-03-02T20:23:34;5.40;99.90
27759;DHT22;15148;48.972;12.794;2024-03-02T20:28:36;5.30;99.90
27759;DHT22;15148;48.972;12.794;2024-03-02T20:33:38;5.30;99.90
27759;DHT22;15148;48.972;12.794;2024-03-02T20:38:41;5.20;99.90
27759;DHT22;15148;48.972;12.794;2024-03-02T20:43:43;5.10;99.90
27759;DHT22;15148;48.972;12.794;2024-03-02T20:48:45;5.00;99.90
27759;DHT22;15148;48.972;12.794;2024-03-02T20:53:49;5.00;99.90
27759;DHT22;15148;48.972;12.794;2024-03-02T20:58:51;4.90;99.90
27759;DHT22;15148;48.972;12.794;2024-03-02T21:03:53;4.90;99.90
27759;DHT22;15148;48.972;12.794;2024-03-02T21:08:55;4.90;99.90
27759;DHT22;15148;48.972;12.794;2024-03-02T21:13:57;4.80;99.90
27759;DHT22;15148;48.972;12.794;2024-03-02T21:19:00;4.80;99.90
27759;DHT22;15148;48.972;12.794;2024-03-02T21:24:03;4.80;99.90
27759;DHT22;15148;48.972;12.794;2024-03-02T21:29:05;4.70;99.90
27759;DHT22;15148;48.972;12.794;2024-03-02T21:34:07;4.60;99.90
27759;DHT22;15148;48.972;12.794;2024-03-02T21:39:09;4.50;99.90
27759;DHT22;15148;48.972;12.794;2024-03-02T21:44:12;4.30;99.90
27759;DHT22;15148;48.972;12.794;2024-03-02T21:49:14;4.20;99.90
27759;DHT22;15148;48.972;12.794;2024-03-02T21:54:17;4.30;99.90
27759;DHT22;15148;48.972;12.794;2024-03-02T21:59:19;4.20;99.90
27759;DHT22;15148;48.972;12.794;2024-03-02T22:04:21;4.10;99.90
27759;DHT22;15148;48.972;12.794;2024-03-02T22:09:23;4.10;99.90
27759;DHT22;15148;48.972;12.794;2024-03-02T22:14:25;4.10;99.90
27759;DHT22;15148;48.972;12.794;2024-03-02T22:19:27;3.90;99.90
27759;DHT22;15148;48.972;12.794;2024-03-02T22:24:29;3.80;99.90
27759;DHT22;15148;48.972;12.794;2024-03-02T22:29:31;3.80;99.90
27759;DHT22;15148;48.972;12.794;2024-03-02T22:34:33;3.80;99.90
27759;DHT22;15148;48.972;12.794;2024-03-02T22:39:34;3.70;99.90
27759;DHT22;15148;48.972;12.794;2024-03-02T22:44:37;3.80;99.90
27759;DHT22;15148;48.972;12.794;2024-03-02T22:49:39;3.90;99.90
27759;DHT22;15148;48.972;12.794;2024-03-02T22:54:41;3.70;99.90
27759;DHT22;15148;48.972;12.794;2024-03-02T22:59:50;3.60;99.90
27759;DHT22;15148;48.972;12.794;2024-03-02T23:04:52;3.60;99.90
27759;DHT22;15148;48.972;12.794;2024-03-02T23:09:54;3.50;99.90
27759;DHT22;15148;48.972;12.794;2024-03-02T23:14:56;3.50;99.90
27759;DHT22;15148;48.972;12.794;2024-03-02T23:19:58;3.50;99.90
27759;DHT22;15148;48.972;12.794;2024-03-02T23:25:02;3.40;99.90
27759;DHT22;15148;48.972;12.794;2024-03-02T23:30:05;3.40;99.90
27759;DHT22;15148;48.972;12.794;2024-03-02T23:35:07;3.30;99.90
27759;DHT22;15148;48.972;12.794;2024-03-02T23:40:10;3.30;99.90
27759;DHT22;15148;48.972;12.794;2024-03-02T23:45:31;3.30;99.90
27759;DHT22;15148;48.972;12.794;2024-03-02T23:50:33;3.30;99.90
27759;DHT22;15148;48.972;12.794;2024-03-02T23:55:35;3.20;99.90
